createdAt,value
2023-04-02T00:01:07.565Z,3.22
2023-04-02T00:04:11.586Z,3.38
2023-04-02T00:06:45.231Z,3.90
2023-04-02T00:09:37.825Z,4.25
2023-04-02T00:12:20.863Z,3.75
2023-04-02T00:14:53.970Z,3.90
2023-04-02T00:17:25.054Z,3.60
2023-04-02T00:20:07.542Z,3.80
2023-04-02T00:22:36.483Z,3.60
2023-04-02T00:25:13.804Z,3.97
2023-04-02T00:27:42.368Z,3.97
2023-04-02T00:30:14.784Z,4.00
2023-04-02T00:32:44.225Z,3.80
2023-04-02T00:35:19.737Z,5.07
2023-04-02T00:37:47.941Z,3.63
2023-04-02T00:40:24.747Z,3.90
2023-04-02T00:42:55.154Z,4.35
2023-04-02T00:45:28.952Z,4.27
2023-04-02T00:47:58.836Z,3.93
2023-04-02T00:50:34.255Z,4.10
2023-04-02T00:53:13.909Z,3.83
2023-04-02T00:55:43.225Z,4.00
2023-04-02T00:58:20.474Z,4.15
2023-04-02T01:00:52.881Z,3.87
2023-04-02T01:03:35.125Z,3.75
2023-04-02T01:06:11.170Z,3.83
2023-04-02T01:09:00.569Z,4.03
2023-04-02T01:11:56.632Z,6.38
2023-04-02T01:14:45.240Z,8.02
2023-04-02T01:17:35.234Z,6.97
2023-04-02T01:20:40.445Z,6.13
2023-04-02T01:23:15.091Z,4.32
2023-04-02T01:25:49.199Z,3.60
2023-04-02T01:28:21.585Z,4.17
2023-04-02T01:30:57.382Z,4.10
2023-04-02T01:33:31.542Z,4.10
2023-04-02T01:36:07.308Z,3.53
2023-04-02T01:38:41.490Z,3.90
2023-04-02T01:41:15.075Z,3.90
2023-04-02T01:43:49.057Z,4.40
2023-04-02T01:46:29.591Z,3.80
2023-04-02T01:48:58.970Z,3.80
2023-04-02T01:51:30.482Z,4.40
2023-04-02T01:54:06.282Z,4.20
2023-04-02T01:56:36.370Z,3.83
2023-04-02T01:59:07.008Z,3.60
2023-04-02T02:01:41.500Z,4.03
2023-04-02T02:04:13.057Z,4.13
2023-04-02T02:06:41.554Z,3.70
2023-04-02T02:09:18.937Z,3.87
2023-04-02T02:11:49.271Z,4.20
2023-04-02T02:14:20.900Z,3.50
2023-04-02T02:16:56.712Z,3.70
2023-04-02T02:19:30.147Z,4.07
2023-04-02T02:22:04.906Z,3.77
2023-04-02T02:24:36.014Z,4.23
2023-04-02T02:27:35.595Z,4.07
2023-04-02T02:30:07.587Z,3.90
2023-04-02T02:32:40.332Z,4.20
2023-04-02T02:35:19.348Z,4.50
2023-04-02T02:37:52.060Z,4.80
2023-04-02T02:40:25.460Z,3.93
2023-04-02T02:42:58.800Z,4.37
2023-04-02T02:45:29.848Z,4.83
2023-04-02T02:48:00.468Z,4.27
2023-04-02T02:50:33.147Z,4.87
2023-04-02T02:53:05.404Z,4.03
2023-04-02T02:55:36.971Z,4.20
2023-04-02T02:58:09.674Z,4.10
2023-04-02T03:00:39.234Z,3.50
2023-04-02T03:03:11.721Z,4.23
2023-04-02T03:05:42.171Z,3.97
2023-04-02T03:08:18.107Z,4.27
2023-04-02T03:10:53.056Z,5.00
2023-04-02T03:13:24.581Z,3.87
2023-04-02T03:16:01.490Z,4.07
2023-04-02T03:18:36.424Z,4.40
2023-04-02T03:21:12.891Z,4.07
2023-04-02T03:23:44.927Z,3.77
2023-04-02T03:26:19.213Z,3.73
2023-04-02T03:28:53.465Z,3.97
2023-04-02T03:31:27.493Z,3.77
2023-04-02T03:33:59.947Z,3.90
2023-04-02T03:36:34.209Z,4.03
2023-04-02T03:39:10.999Z,3.83
2023-04-02T03:41:45.349Z,3.90
2023-04-02T03:44:23.709Z,4.10
2023-04-02T03:46:57.732Z,4.00
2023-04-02T03:49:32.464Z,4.33
2023-04-02T03:52:05.900Z,4.10
2023-04-02T03:54:34.262Z,4.40
2023-04-02T03:57:02.888Z,4.17
2023-04-02T03:59:40.995Z,3.97
2023-04-02T04:02:28.059Z,3.90
2023-04-02T04:04:58.350Z,4.10
2023-04-02T04:07:33.790Z,4.17
2023-04-02T04:10:04.375Z,4.20
2023-04-02T04:12:35.945Z,4.20
2023-04-02T04:15:09.584Z,4.60
2023-04-02T04:17:51.392Z,3.90
2023-04-02T04:20:23.176Z,4.30
2023-04-02T04:22:55.999Z,4.20
2023-04-02T04:25:29.627Z,3.97
2023-04-02T04:28:07.763Z,4.30
2023-04-02T04:30:48.737Z,4.90
2023-04-02T04:33:23.223Z,3.90
2023-04-02T04:35:55.559Z,4.33
2023-04-02T04:38:33.731Z,4.27
2023-04-02T04:41:06.589Z,4.50
2023-04-02T04:43:45.575Z,4.27
2023-04-02T04:46:19.295Z,4.30
2023-04-02T04:48:54.575Z,4.30
2023-04-02T04:51:26.772Z,4.23
2023-04-02T04:53:56.307Z,4.10
2023-04-02T04:56:28.120Z,4.50
2023-04-02T04:59:01.823Z,5.80
2023-04-02T05:01:38.122Z,4.67
2023-04-02T05:04:14.328Z,4.30
2023-04-02T05:06:46.302Z,4.23
2023-04-02T05:09:23.916Z,4.10
2023-04-02T05:12:01.581Z,4.07
2023-04-02T05:14:36.629Z,4.00
2023-04-02T05:17:10.127Z,4.05
2023-04-02T05:19:45.095Z,4.27
2023-04-02T05:22:26.555Z,3.42
2023-04-02T05:25:10.679Z,4.47
2023-04-02T05:27:45.071Z,4.18
2023-04-02T05:30:22.559Z,4.57
2023-04-02T05:32:56.447Z,4.38
2023-04-02T05:35:31.949Z,4.32
2023-04-02T05:38:02.138Z,3.97
2023-04-02T05:40:37.433Z,3.70
2023-04-02T05:43:10.796Z,3.20
2023-04-02T05:45:41.806Z,3.60
2023-04-02T05:48:18.650Z,5.03
2023-04-02T05:50:51.200Z,3.72
2023-04-02T05:53:22.834Z,3.33
2023-04-02T05:55:57.236Z,3.45
2023-04-02T05:58:36.020Z,3.20
2023-04-02T06:01:25.111Z,3.70
2023-04-02T06:04:01.005Z,3.53
2023-04-02T06:06:43.980Z,2.90
2023-04-02T06:09:16.803Z,2.67
2023-04-02T06:11:49.598Z,2.53
2023-04-02T06:14:18.461Z,2.83
2023-04-02T06:16:47.234Z,3.10
2023-04-02T06:19:21.617Z,3.13
2023-04-02T06:21:53.602Z,3.47
2023-04-02T06:24:25.716Z,3.83
2023-04-02T06:26:59.864Z,3.28
2023-04-02T06:29:34.042Z,3.17
2023-04-02T06:32:03.461Z,3.00
2023-04-02T06:34:32.900Z,3.28
2023-04-02T06:37:04.436Z,2.85
2023-04-02T06:39:34.662Z,2.80
2023-04-02T06:42:07.583Z,2.88
2023-04-02T06:44:37.976Z,3.20
2023-04-02T06:47:11.257Z,2.83
2023-04-02T06:49:45.561Z,3.33
2023-04-02T06:52:20.450Z,3.10
2023-04-02T06:54:49.110Z,2.72
2023-04-02T06:57:19.081Z,3.00
2023-04-02T06:59:47.167Z,2.92
2023-04-02T07:02:32.499Z,2.95
2023-04-02T07:05:04.066Z,3.17
2023-04-02T07:07:31.993Z,2.90
2023-04-02T07:09:59.955Z,3.15
2023-04-02T07:12:29.343Z,3.03
2023-04-02T07:14:57.236Z,3.05
2023-04-02T07:17:25.175Z,2.60
2023-04-02T07:19:53.197Z,2.90
2023-04-02T07:22:22.734Z,2.63
2023-04-02T07:24:50.575Z,2.63
2023-04-02T07:27:18.516Z,3.33
2023-04-02T07:29:47.660Z,2.63
2023-04-02T07:32:15.597Z,4.13
2023-04-02T07:34:43.473Z,3.65
2023-04-02T07:37:15.019Z,3.38
2023-04-02T07:39:46.386Z,2.65
2023-04-02T07:42:14.177Z,2.80
2023-04-02T07:44:42.136Z,3.30
2023-04-02T07:47:11.572Z,2.80
2023-04-02T07:49:39.368Z,2.97
2023-04-02T07:52:07.390Z,2.70
2023-04-02T07:54:35.887Z,2.60
2023-04-02T07:57:03.816Z,2.42
2023-04-02T07:59:31.696Z,2.45
2023-04-02T08:01:59.783Z,2.33
2023-04-02T08:04:29.268Z,2.33
2023-04-02T08:06:57.295Z,2.35
2023-04-02T08:09:25.207Z,2.40
2023-04-02T08:11:53.122Z,2.30
2023-04-02T08:14:21.097Z,2.53
2023-04-02T08:16:51.919Z,2.30
2023-04-02T08:19:20.366Z,2.30
2023-04-02T08:21:51.689Z,2.08
2023-04-02T08:24:20.549Z,2.10
2023-04-02T08:26:49.622Z,2.30
2023-04-02T08:29:17.544Z,2.13
2023-04-02T08:31:45.473Z,2.35
2023-04-02T08:34:13.893Z,2.25
2023-04-02T08:36:45.251Z,2.08
2023-04-02T08:39:14.764Z,2.13
2023-04-02T08:41:48.980Z,2.00
2023-04-02T08:44:29.170Z,2.60
2023-04-02T08:47:04.151Z,2.20
2023-04-02T08:49:36.938Z,2.15
2023-04-02T08:52:07.766Z,1.90
2023-04-02T08:54:38.654Z,2.00
2023-04-02T08:57:14.428Z,2.00
2023-04-02T08:59:44.287Z,2.42
2023-04-02T09:02:28.374Z,1.83
2023-04-02T09:04:58.424Z,2.05
2023-04-02T09:07:28.561Z,2.17
2023-04-02T09:09:58.305Z,1.80
2023-04-02T09:12:28.816Z,2.63
2023-04-02T09:15:07.301Z,2.00
2023-04-02T09:17:50.399Z,1.80
2023-04-02T09:20:24.366Z,2.83
2023-04-02T09:22:54.291Z,1.70
2023-04-02T09:25:27.508Z,2.00
2023-04-02T09:27:58.220Z,1.42
2023-04-02T09:30:41.558Z,2.83
2023-04-02T09:33:09.966Z,2.05
2023-04-02T09:35:54.374Z,1.50
2023-04-02T09:38:24.391Z,1.80
2023-04-02T09:40:59.656Z,1.75
2023-04-02T09:43:33.080Z,1.60
2023-04-02T09:46:04.177Z,1.45
2023-04-02T09:48:34.231Z,1.55
2023-04-02T09:51:14.570Z,1.25
2023-04-02T09:53:44.788Z,1.50
2023-04-02T09:56:16.684Z,1.48
2023-04-02T09:58:45.903Z,1.20
2023-04-02T10:01:29.510Z,1.35
2023-04-02T10:03:59.315Z,1.40
2023-04-02T10:06:29.593Z,1.40
2023-04-02T10:08:57.658Z,1.40
2023-04-02T10:11:43.730Z,1.20
2023-04-02T10:14:21.136Z,1.15
2023-04-02T10:16:52.361Z,1.30
2023-04-02T10:19:27.589Z,1.40
2023-04-02T10:21:56.620Z,1.33
2023-04-02T10:24:27.579Z,1.42
2023-04-02T10:27:06.796Z,1.50
2023-04-02T10:29:53.095Z,1.90
2023-04-02T10:32:26.392Z,1.55
2023-04-02T10:34:59.692Z,1.20
2023-04-02T10:37:58.514Z,1.00
2023-04-02T10:40:32.253Z,1.80
2023-04-02T10:43:29.470Z,1.10
2023-04-02T10:46:03.457Z,1.08
2023-04-02T10:48:44.357Z,0.95
2023-04-02T10:51:20.397Z,0.90
2023-04-02T10:53:55.349Z,1.80
2023-04-02T10:56:24.285Z,1.60
2023-04-02T10:58:59.393Z,1.00
2023-04-02T11:01:30.468Z,1.00
2023-04-02T11:04:02.488Z,1.00
2023-04-02T11:06:34.842Z,1.60
2023-04-02T11:09:08.822Z,1.00
2023-04-02T11:11:41.191Z,1.27
2023-04-02T11:14:15.437Z,1.10
2023-04-02T11:16:44.881Z,1.02
2023-04-02T11:19:24.935Z,0.88
2023-04-02T11:22:00.274Z,1.17
2023-04-02T11:24:38.802Z,0.90
2023-04-02T11:27:19.794Z,1.65
2023-04-02T11:29:51.404Z,1.30
2023-04-02T11:32:35.822Z,0.88
2023-04-02T11:35:33.612Z,1.10
2023-04-02T11:38:04.327Z,0.90
2023-04-02T11:40:49.917Z,0.93
2023-04-02T11:43:52.331Z,1.20
2023-04-02T11:46:45.749Z,1.00
2023-04-02T11:49:42.049Z,1.38
2023-04-02T11:52:28.348Z,1.85
2023-04-02T11:55:06.684Z,0.90
2023-04-02T11:57:52.123Z,1.90
2023-04-02T12:00:31.033Z,1.00
2023-04-02T12:03:19.110Z,0.90
2023-04-02T12:05:54.656Z,1.13
2023-04-02T12:08:30.402Z,1.13
2023-04-02T12:11:00.490Z,0.90
2023-04-02T12:13:52.061Z,1.10
2023-04-02T12:16:20.720Z,0.90
2023-04-02T12:18:54.058Z,0.98
2023-04-02T12:21:24.489Z,1.02
2023-04-02T12:23:55.627Z,0.90
2023-04-02T12:26:38.699Z,1.10
2023-04-02T12:29:25.512Z,1.85
2023-04-02T12:31:54.450Z,0.90
2023-04-02T12:34:25.068Z,0.90
2023-04-02T12:36:55.039Z,1.25
2023-04-02T12:39:24.670Z,1.08
2023-04-02T12:41:54.794Z,1.20
2023-04-02T12:44:24.297Z,1.05
2023-04-02T12:46:53.325Z,0.80
2023-04-02T12:49:37.940Z,1.73
2023-04-02T12:52:09.990Z,1.17
2023-04-02T12:54:46.258Z,1.10
2023-04-02T12:57:32.979Z,1.30
2023-04-02T13:00:05.759Z,1.30
2023-04-02T13:02:43.881Z,1.20
2023-04-02T13:05:13.313Z,0.90
2023-04-02T13:07:42.700Z,0.90
2023-04-02T13:10:25.678Z,0.90
2023-04-02T13:12:57.497Z,1.05
2023-04-02T13:15:28.460Z,0.88
2023-04-02T13:18:15.059Z,0.90
2023-04-02T13:20:56.143Z,1.00
2023-04-02T13:23:34.855Z,1.30
2023-04-02T13:26:06.690Z,1.25
2023-04-02T13:28:34.561Z,0.93
2023-04-02T13:31:03.070Z,0.80
2023-04-02T13:33:31.118Z,1.10
2023-04-02T13:36:00.575Z,1.52
2023-04-02T13:38:28.605Z,1.20
2023-04-02T13:40:56.512Z,1.27
2023-04-02T13:43:24.431Z,1.13
2023-04-02T13:45:55.328Z,1.20
2023-04-02T13:48:26.208Z,1.00
2023-04-02T13:50:54.171Z,0.93
2023-04-02T13:53:30.401Z,1.10
2023-04-02T13:55:58.334Z,1.10
2023-04-02T13:58:26.576Z,1.30
2023-04-02T14:00:54.614Z,1.10
2023-04-02T14:03:25.522Z,1.30
2023-04-02T14:06:03.029Z,1.20
2023-04-02T14:08:45.343Z,1.40
2023-04-02T14:11:27.412Z,1.20
2023-04-02T14:14:29.843Z,1.00
2023-04-02T14:17:11.797Z,1.00
2023-04-02T14:19:55.836Z,0.90
2023-04-02T14:22:39.193Z,1.00
2023-04-02T14:25:18.802Z,1.20
2023-04-02T14:27:54.333Z,1.30
2023-04-02T14:30:28.352Z,1.10
2023-04-02T14:33:06.448Z,1.25
2023-04-02T14:35:37.462Z,0.98
2023-04-02T14:38:14.690Z,0.95
2023-04-02T14:40:49.510Z,1.10
2023-04-02T14:43:23.662Z,1.02
2023-04-02T14:46:00.137Z,1.17
2023-04-02T14:48:41.596Z,1.20
2023-04-02T14:51:16.638Z,1.20
2023-04-02T14:53:55.925Z,1.20
2023-04-02T14:56:26.719Z,1.27
2023-04-02T14:59:05.618Z,1.50
2023-04-02T15:01:39.081Z,1.45
2023-04-02T15:04:14.096Z,1.70
2023-04-02T15:06:45.638Z,1.83
2023-04-02T15:09:19.110Z,1.30
2023-04-02T15:11:52.392Z,1.52
2023-04-02T15:14:24.869Z,1.25
2023-04-02T15:16:52.765Z,1.52
2023-04-02T15:19:20.898Z,1.33
2023-04-02T15:22:06.914Z,1.50
2023-04-02T15:24:45.500Z,1.60
2023-04-02T15:27:29.395Z,1.30
2023-04-02T15:30:09.016Z,2.60
2023-04-02T15:32:39.796Z,1.30
2023-04-02T15:35:20.481Z,1.80
2023-04-02T15:37:58.638Z,1.60
2023-04-02T15:40:39.272Z,1.70
2023-04-02T15:43:19.944Z,1.70
2023-04-02T15:45:55.000Z,1.70
2023-04-02T15:48:31.459Z,2.23
2023-04-02T15:51:08.949Z,2.10
2023-04-02T15:53:50.177Z,1.73
2023-04-02T15:56:27.495Z,2.17
2023-04-02T15:59:11.535Z,5.03
2023-04-02T16:01:52.968Z,4.63
2023-04-02T16:04:36.926Z,3.47
2023-04-02T16:07:23.994Z,2.33
2023-04-02T16:10:03.913Z,1.95
2023-04-02T16:12:34.030Z,3.15
2023-04-02T16:15:14.910Z,2.03
2023-04-02T16:17:47.057Z,1.70
2023-04-02T16:20:21.796Z,1.85
2023-04-02T16:23:00.497Z,2.05
2023-04-02T16:25:33.766Z,1.85
2023-04-02T16:28:16.156Z,1.83
2023-04-02T16:30:56.721Z,2.20
2023-04-02T16:33:37.499Z,1.80
2023-04-02T16:36:22.114Z,3.20
2023-04-02T16:38:59.536Z,2.22
2023-04-02T16:41:41.335Z,2.00
2023-04-02T16:44:22.208Z,2.20
2023-04-02T16:47:04.386Z,2.80
2023-04-02T16:49:38.802Z,2.50
2023-04-02T16:52:21.136Z,2.38
2023-04-02T16:54:59.437Z,1.92
2023-04-02T16:57:37.936Z,2.90
2023-04-02T17:00:18.488Z,2.00
2023-04-02T17:02:58.974Z,1.90
2023-04-02T17:05:32.518Z,2.10
2023-04-02T17:08:12.323Z,1.92
2023-04-02T17:10:50.207Z,1.80
2023-04-02T17:13:27.908Z,2.10
2023-04-02T17:16:04.709Z,2.63
2023-04-02T17:18:34.863Z,2.70
2023-04-02T17:21:06.802Z,2.20
2023-04-02T17:23:55.422Z,2.45
2023-04-02T17:26:27.217Z,2.38
2023-04-02T17:28:58.177Z,2.30
2023-04-02T17:31:30.892Z,2.40
2023-04-02T17:34:00.512Z,2.30
2023-04-02T17:36:40.972Z,2.25
2023-04-02T17:39:20.282Z,2.40
2023-04-02T17:41:55.254Z,2.33
2023-04-02T17:44:39.210Z,3.38
2023-04-02T17:47:16.312Z,2.80
2023-04-02T17:49:58.138Z,2.45
2023-04-02T17:52:31.090Z,2.50
2023-04-02T17:55:07.463Z,2.30
2023-04-02T17:57:48.580Z,4.75
2023-04-02T18:00:36.388Z,2.78
2023-04-02T18:03:28.753Z,2.30
2023-04-02T18:06:05.957Z,2.72
2023-04-02T18:08:43.736Z,2.83
2023-04-02T18:11:19.431Z,3.10
2023-04-02T18:13:54.877Z,3.10
2023-04-02T18:16:35.434Z,2.72
2023-04-02T18:19:16.066Z,3.00
2023-04-02T18:21:52.774Z,2.50
2023-04-02T18:24:34.365Z,2.50
2023-04-02T18:27:19.342Z,3.28
2023-04-02T18:29:57.262Z,2.40
2023-04-02T18:32:53.942Z,2.95
2023-04-02T18:35:26.749Z,2.70
2023-04-02T18:38:14.647Z,4.90
2023-04-02T18:40:50.300Z,5.75
2023-04-02T18:43:30.500Z,4.07
2023-04-02T18:46:09.637Z,3.35
2023-04-02T18:48:44.593Z,3.38
2023-04-02T18:51:17.688Z,3.95
2023-04-02T18:53:48.370Z,3.72
2023-04-02T18:56:19.873Z,3.80
2023-04-02T18:58:57.156Z,3.08
2023-04-02T19:01:31.630Z,3.28
2023-04-02T19:04:04.181Z,3.78
2023-04-02T19:06:37.849Z,3.13
2023-04-02T19:09:13.263Z,2.95
2023-04-02T19:11:41.132Z,3.15
2023-04-02T19:14:13.757Z,3.00
2023-04-02T19:17:03.614Z,2.92
2023-04-02T19:19:38.770Z,3.13
2023-04-02T19:22:16.714Z,3.20
2023-04-02T19:25:15.880Z,3.03
2023-04-02T19:27:58.253Z,3.13
2023-04-02T19:30:40.724Z,3.45
2023-04-02T19:33:18.695Z,2.90
2023-04-02T19:35:53.862Z,3.60
2023-04-02T19:38:40.985Z,3.60
2023-04-02T19:41:22.521Z,2.95
2023-04-02T19:43:50.547Z,3.17
2023-04-02T19:46:18.386Z,2.92
2023-04-02T19:48:53.115Z,2.90
2023-04-02T19:51:21.418Z,3.33
2023-04-02T19:53:49.209Z,3.15
2023-04-02T19:56:18.454Z,3.03
2023-04-02T19:58:46.199Z,3.90
2023-04-02T20:01:14.036Z,3.25
2023-04-02T20:03:41.987Z,3.95
2023-04-02T20:06:09.897Z,3.65
2023-04-02T20:08:38.518Z,2.88
2023-04-02T20:11:07.555Z,2.95
2023-04-02T20:13:36.734Z,2.92
2023-04-02T20:16:06.545Z,2.63
2023-04-02T20:18:37.026Z,3.10
2023-04-02T20:21:06.608Z,3.67
2023-04-02T20:23:35.400Z,3.55
2023-04-02T20:26:04.684Z,2.70
2023-04-02T20:28:32.702Z,3.30
2023-04-02T20:31:09.768Z,3.67
2023-04-02T20:33:38.567Z,2.97
2023-04-02T20:36:08.878Z,3.42
2023-04-02T20:38:37.596Z,3.13
2023-04-02T20:41:07.686Z,2.92
2023-04-02T20:43:36.344Z,3.15
2023-04-02T20:46:10.081Z,3.60
2023-04-02T20:48:39.253Z,3.83
2023-04-02T20:51:09.103Z,3.53
2023-04-02T20:53:38.521Z,3.33
2023-04-02T20:56:08.002Z,3.20
2023-04-02T20:58:36.840Z,3.20
2023-04-02T21:01:11.304Z,3.00
2023-04-02T21:03:40.071Z,3.33
2023-04-02T21:06:13.351Z,2.40
2023-04-02T21:08:41.395Z,2.95
2023-04-02T21:11:09.634Z,2.92
2023-04-02T21:13:38.526Z,2.97
2023-04-02T21:16:16.137Z,3.03
2023-04-02T21:18:44.522Z,2.80
2023-04-02T21:21:13.875Z,3.20
2023-04-02T21:23:42.613Z,3.53
2023-04-02T21:26:13.330Z,3.17
2023-04-02T21:28:41.587Z,2.30
2023-04-02T21:31:11.648Z,2.90
2023-04-02T21:33:42.565Z,3.75
2023-04-02T21:36:12.982Z,2.92
2023-04-02T21:38:43.720Z,3.00
2023-04-02T21:41:13.915Z,2.72
2023-04-02T21:43:41.849Z,3.15
2023-04-02T21:46:10.117Z,2.97
2023-04-02T21:48:38.161Z,3.20
2023-04-02T21:51:09.956Z,3.05
2023-04-02T21:53:38.398Z,2.83
2023-04-02T21:56:09.303Z,3.00
2023-04-02T21:58:37.328Z,3.05
2023-04-02T22:01:11.137Z,3.00
2023-04-02T22:03:43.244Z,2.78
2023-04-02T22:06:15.158Z,3.75
2023-04-02T22:08:44.509Z,3.05
2023-04-02T22:11:14.542Z,3.45
2023-04-02T22:13:43.825Z,3.45
2023-04-02T22:16:13.902Z,3.40
2023-04-02T22:18:42.265Z,3.75
2023-04-02T22:21:12.004Z,3.83
2023-04-02T22:23:40.814Z,3.72
2023-04-02T22:26:09.838Z,3.22
2023-04-02T22:28:38.800Z,3.80
2023-04-02T22:31:10.134Z,3.83
2023-04-02T22:33:38.586Z,3.20
2023-04-02T22:36:07.757Z,3.05
2023-04-02T22:38:37.479Z,3.80
2023-04-02T22:41:07.340Z,3.20
2023-04-02T22:43:35.422Z,2.83
2023-04-02T22:46:03.555Z,2.80
2023-04-02T22:48:31.817Z,3.13
2023-04-02T22:50:59.824Z,3.17
2023-04-02T22:53:28.138Z,2.80
2023-04-02T22:56:02.959Z,3.00
2023-04-02T22:58:31.297Z,4.10
2023-04-02T23:01:04.815Z,3.42
2023-04-02T23:03:32.692Z,4.00
2023-04-02T23:06:03.934Z,3.38
2023-04-02T23:08:31.784Z,3.40
2023-04-02T23:11:06.300Z,3.13
2023-04-02T23:13:34.905Z,4.28
2023-04-02T23:16:03.997Z,4.15
2023-04-02T23:18:33.797Z,3.35
2023-04-02T23:21:01.983Z,3.60
2023-04-02T23:23:31.390Z,3.25
2023-04-02T23:26:09.098Z,3.08
2023-04-02T23:28:38.306Z,3.38
2023-04-02T23:31:08.064Z,3.38
2023-04-02T23:33:36.371Z,3.28
2023-04-02T23:36:08.521Z,3.40
2023-04-02T23:38:36.656Z,3.40
2023-04-02T23:41:04.868Z,3.33
2023-04-02T23:43:34.004Z,3.83
2023-04-02T23:46:02.006Z,3.55
2023-04-02T23:48:29.981Z,3.72
2023-04-02T23:50:57.954Z,3.10
2023-04-02T23:53:27.359Z,3.28
2023-04-02T23:55:55.291Z,2.83
2023-04-02T23:58:23.188Z,3.22
